sensor_id;sensor_type;location;lat;lon;timestamp;P1;durP1;ratioP1;P2;durP2;ratioP2
37241;SDS011;23135;51.078;12.108;2023-06-22T00:01:42;18.38;;;9.38;;
37241;SDS011;23135;51.078;12.108;2023-06-22T00:04:07;14.98;;;8.88;;
37241;SDS011;23135;51.078;12.108;2023-06-22T00:06:33;20.85;;;8.88;;
37241;SDS011;23135;51.078;12.108;2023-06-22T00:08:58;18.88;;;8.60;;
37241;SDS011;23135;51.078;12.108;2023-06-22T00:11:24;27.27;;;7.95;;
37241;SDS011;23135;51.078;12.108;2023-06-22T00:13:49;23.58;;;7.25;;
37241;SDS011;23135;51.078;12.108;2023-06-22T00:16:16;18.85;;;8.75;;
37241;SDS011;23135;51.078;12.108;2023-06-22T00:18:41;14.02;;;8.13;;
37241;SDS011;23135;51.078;12.108;2023-06-22T00:21:11;18.15;;;7.35;;
37241;SDS011;23135;51.078;12.108;2023-06-22T00:23:37;18.38;;;8.70;;
37241;SDS011;23135;51.078;12.108;2023-06-22T00:26:03;22.92;;;8.43;;
37241;SDS011;23135;51.078;12.108;2023-06-22T00:28:28;18.15;;;8.32;;
37241;SDS011;23135;51.078;12.108;2023-06-22T00:30:54;24.02;;;8.75;;
37241;SDS011;23135;51.078;12.108;2023-06-22T00:33:20;18.40;;;9.20;;
37241;SDS011;23135;51.078;12.108;2023-06-22T00:35:45;16.75;;;8.57;;
37241;SDS011;23135;51.078;12.108;2023-06-22T00:38:11;8.80;;;6.88;;
37241;SDS011;23135;51.078;12.108;2023-06-22T00:40:37;13.90;;;7.80;;
37241;SDS011;23135;51.078;12.108;2023-06-22T00:43:03;17.55;;;7.95;;
37241;SDS011;23135;51.078;12.108;2023-06-22T00:45:29;13.43;;;8.73;;
37241;SDS011;23135;51.078;12.108;2023-06-22T00:47:56;14.05;;;8.15;;
37241;SDS011;23135;51.078;12.108;2023-06-22T00:50:23;11.10;;;7.20;;
37241;SDS011;23135;51.078;12.108;2023-06-22T00:52:51;15.55;;;8.27;;
37241;SDS011;23135;51.078;12.108;2023-06-22T00:55:18;11.75;;;7.75;;
37241;SDS011;23135;51.078;12.108;2023-06-22T00:57:46;15.75;;;8.60;;
37241;SDS011;23135;51.078;12.108;2023-06-22T01:00:13;16.83;;;8.93;;
37241;SDS011;23135;51.078;12.108;2023-06-22T01:02:42;15.57;;;8.68;;
37241;SDS011;23135;51.078;12.108;2023-06-22T01:05:11;19.25;;;9.52;;
37241;SDS011;23135;51.078;12.108;2023-06-22T01:07:42;16.08;;;8.52;;
37241;SDS011;23135;51.078;12.108;2023-06-22T01:16:03;12.90;;;8.85;;
37241;SDS011;23135;51.078;12.108;2023-06-22T01:18:42;10.60;;;8.23;;
37241;SDS011;23135;51.078;12.108;2023-06-22T01:21:11;13.45;;;9.43;;
37241;SDS011;23135;51.078;12.108;2023-06-22T01:23:46;14.13;;;9.75;;
37241;SDS011;23135;51.078;12.108;2023-06-22T01:29:04;26.73;;;8.38;;
37241;SDS011;23135;51.078;12.108;2023-06-22T01:31:30;22.65;;;8.60;;
37241;SDS011;23135;51.078;12.108;2023-06-22T01:33:59;32.42;;;9.32;;
37241;SDS011;23135;51.078;12.108;2023-06-22T01:36:26;21.10;;;9.30;;
37241;SDS011;23135;51.078;12.108;2023-06-22T01:38:53;18.55;;;8.95;;
37241;SDS011;23135;51.078;12.108;2023-06-22T01:41:19;12.35;;;9.27;;
37241;SDS011;23135;51.078;12.108;2023-06-22T01:43:46;18.25;;;10.10;;
37241;SDS011;23135;51.078;12.108;2023-06-22T01:46:12;12.90;;;9.95;;
37241;SDS011;23135;51.078;12.108;2023-06-22T01:48:39;15.80;;;10.38;;
37241;SDS011;23135;51.078;12.108;2023-06-22T01:51:05;14.00;;;9.68;;
37241;SDS011;23135;51.078;12.108;2023-06-22T01:53:31;15.18;;;9.63;;
37241;SDS011;23135;51.078;12.108;2023-06-22T01:55:57;20.95;;;10.25;;
37241;SDS011;23135;51.078;12.108;2023-06-22T01:58:23;16.45;;;10.15;;
37241;SDS011;23135;51.078;12.108;2023-06-22T02:00:56;17.33;;;9.75;;
37241;SDS011;23135;51.078;12.108;2023-06-22T02:03:34;16.17;;;10.02;;
37241;SDS011;23135;51.078;12.108;2023-06-22T02:06:03;17.13;;;9.45;;
37241;SDS011;23135;51.078;12.108;2023-06-22T02:08:33;17.20;;;10.48;;
37241;SDS011;23135;51.078;12.108;2023-06-22T02:11:05;18.90;;;10.70;;
37241;SDS011;23135;51.078;12.108;2023-06-22T02:13:32;21.73;;;9.45;;
37241;SDS011;23135;51.078;12.108;2023-06-22T02:15:58;17.27;;;10.05;;
37241;SDS011;23135;51.078;12.108;2023-06-22T02:18:25;18.20;;;9.77;;
37241;SDS011;23135;51.078;12.108;2023-06-22T02:20:50;18.67;;;9.20;;
37241;SDS011;23135;51.078;12.108;2023-06-22T02:23:16;12.90;;;10.30;;
37241;SDS011;23135;51.078;12.108;2023-06-22T02:25:41;16.58;;;9.38;;
37241;SDS011;23135;51.078;12.108;2023-06-22T02:28:09;17.27;;;9.30;;
37241;SDS011;23135;51.078;12.108;2023-06-22T02:30:34;29.50;;;9.68;;
37241;SDS011;23135;51.078;12.108;2023-06-22T02:33:00;29.60;;;11.23;;
37241;SDS011;23135;51.078;12.108;2023-06-22T02:35:26;33.03;;;9.95;;
37241;SDS011;23135;51.078;12.108;2023-06-22T02:37:57;25.10;;;10.68;;
37241;SDS011;23135;51.078;12.108;2023-06-22T02:40:26;28.00;;;9.23;;
37241;SDS011;23135;51.078;12.108;2023-06-22T02:42:52;25.73;;;10.10;;
37241;SDS011;23135;51.078;12.108;2023-06-22T02:45:18;24.25;;;9.73;;
37241;SDS011;23135;51.078;12.108;2023-06-22T02:47:44;23.60;;;12.05;;
37241;SDS011;23135;51.078;12.108;2023-06-22T02:50:10;15.95;;;9.77;;
37241;SDS011;23135;51.078;12.108;2023-06-22T02:52:35;22.05;;;9.65;;
37241;SDS011;23135;51.078;12.108;2023-06-22T02:55:01;18.65;;;10.77;;
37241;SDS011;23135;51.078;12.108;2023-06-22T02:57:27;19.42;;;10.65;;
37241;SDS011;23135;51.078;12.108;2023-06-22T02:59:52;21.50;;;10.48;;
37241;SDS011;23135;51.078;12.108;2023-06-22T03:02:18;16.48;;;10.00;;
37241;SDS011;23135;51.078;12.108;2023-06-22T03:04:46;23.98;;;11.77;;
37241;SDS011;23135;51.078;12.108;2023-06-22T03:07:14;22.52;;;11.00;;
37241;SDS011;23135;51.078;12.108;2023-06-22T03:09:40;33.35;;;10.88;;
37241;SDS011;23135;51.078;12.108;2023-06-22T03:12:07;19.48;;;10.60;;
37241;SDS011;23135;51.078;12.108;2023-06-22T03:14:33;38.78;;;11.07;;
37241;SDS011;23135;51.078;12.108;2023-06-22T03:16:58;26.13;;;9.98;;
37241;SDS011;23135;51.078;12.108;2023-06-22T03:19:28;16.15;;;10.43;;
37241;SDS011;23135;51.078;12.108;2023-06-22T03:21:54;25.70;;;11.48;;
37241;SDS011;23135;51.078;12.108;2023-06-22T03:24:20;19.00;;;11.63;;
37241;SDS011;23135;51.078;12.108;2023-06-22T03:26:45;19.20;;;10.60;;
37241;SDS011;23135;51.078;12.108;2023-06-22T03:29:11;18.48;;;10.27;;
37241;SDS011;23135;51.078;12.108;2023-06-22T03:31:37;21.13;;;11.90;;
37241;SDS011;23135;51.078;12.108;2023-06-22T03:34:03;26.83;;;11.20;;
37241;SDS011;23135;51.078;12.108;2023-06-22T03:36:28;27.15;;;11.48;;
37241;SDS011;23135;51.078;12.108;2023-06-22T03:38:55;25.85;;;10.73;;
37241;SDS011;23135;51.078;12.108;2023-06-22T03:41:20;26.05;;;10.50;;
37241;SDS011;23135;51.078;12.108;2023-06-22T03:43:46;21.25;;;12.80;;
37241;SDS011;23135;51.078;12.108;2023-06-22T03:46:12;31.33;;;12.13;;
37241;SDS011;23135;51.078;12.108;2023-06-22T03:48:37;36.30;;;12.60;;
37241;SDS011;23135;51.078;12.108;2023-06-22T03:51:03;31.25;;;11.65;;
37241;SDS011;23135;51.078;12.108;2023-06-22T03:53:29;29.60;;;14.20;;
37241;SDS011;23135;51.078;12.108;2023-06-22T03:55:55;31.33;;;12.75;;
37241;SDS011;23135;51.078;12.108;2023-06-22T03:58:21;18.08;;;11.40;;
37241;SDS011;23135;51.078;12.108;2023-06-22T04:00:50;36.08;;;14.60;;
37241;SDS011;23135;51.078;12.108;2023-06-22T04:03:17;31.38;;;13.63;;
37241;SDS011;23135;51.078;12.108;2023-06-22T04:05:46;27.67;;;13.15;;
37241;SDS011;23135;51.078;12.108;2023-06-22T04:08:12;26.67;;;14.93;;
37241;SDS011;23135;51.078;12.108;2023-06-22T04:10:38;32.30;;;15.70;;
37241;SDS011;23135;51.078;12.108;2023-06-22T04:13:03;35.90;;;15.15;;
37241;SDS011;23135;51.078;12.108;2023-06-22T04:15:29;26.50;;;13.82;;
37241;SDS011;23135;51.078;12.108;2023-06-22T04:17:55;27.67;;;15.27;;
37241;SDS011;23135;51.078;12.108;2023-06-22T04:20:21;30.48;;;14.52;;
37241;SDS011;23135;51.078;12.108;2023-06-22T04:22:47;26.88;;;14.95;;
37241;SDS011;23135;51.078;12.108;2023-06-22T04:25:12;37.10;;;13.65;;
37241;SDS011;23135;51.078;12.108;2023-06-22T04:27:38;26.50;;;11.05;;
37241;SDS011;23135;51.078;12.108;2023-06-22T04:30:06;35.40;;;11.18;;
37241;SDS011;23135;51.078;12.108;2023-06-22T04:32:33;37.05;;;12.07;;
37241;SDS011;23135;51.078;12.108;2023-06-22T04:35:01;31.95;;;11.65;;
37241;SDS011;23135;51.078;12.108;2023-06-22T04:37:27;33.30;;;13.02;;
37241;SDS011;23135;51.078;12.108;2023-06-22T04:39:53;20.95;;;11.63;;
37241;SDS011;23135;51.078;12.108;2023-06-22T04:42:18;30.13;;;12.90;;
37241;SDS011;23135;51.078;12.108;2023-06-22T04:44:44;28.00;;;12.32;;
37241;SDS011;23135;51.078;12.108;2023-06-22T04:47:09;27.90;;;13.85;;
37241;SDS011;23135;51.078;12.108;2023-06-22T04:49:35;22.42;;;14.75;;
37241;SDS011;23135;51.078;12.108;2023-06-22T04:52:03;25.38;;;15.98;;
37241;SDS011;23135;51.078;12.108;2023-06-22T04:54:30;30.13;;;15.55;;
37241;SDS011;23135;51.078;12.108;2023-06-22T04:57:02;26.67;;;16.02;;
37241;SDS011;23135;51.078;12.108;2023-06-22T04:59:29;25.35;;;15.38;;
37241;SDS011;23135;51.078;12.108;2023-06-22T05:02:00;31.88;;;17.65;;
37241;SDS011;23135;51.078;12.108;2023-06-22T05:04:27;38.60;;;18.08;;
37241;SDS011;23135;51.078;12.108;2023-06-22T05:06:56;29.20;;;17.48;;
37241;SDS011;23135;51.078;12.108;2023-06-22T05:09:22;29.92;;;16.55;;
37241;SDS011;23135;51.078;12.108;2023-06-22T05:11:48;24.63;;;16.50;;
37241;SDS011;23135;51.078;12.108;2023-06-22T05:14:14;28.38;;;19.08;;
37241;SDS011;23135;51.078;12.108;2023-06-22T05:16:41;26.23;;;18.25;;
37241;SDS011;23135;51.078;12.108;2023-06-22T05:19:07;30.50;;;16.88;;
37241;SDS011;23135;51.078;12.108;2023-06-22T05:21:33;28.92;;;16.65;;
37241;SDS011;23135;51.078;12.108;2023-06-22T05:23:58;25.10;;;16.60;;
37241;SDS011;23135;51.078;12.108;2023-06-22T05:26:28;22.05;;;15.45;;
37241;SDS011;23135;51.078;12.108;2023-06-22T05:28:55;28.52;;;15.63;;
37241;SDS011;23135;51.078;12.108;2023-06-22T05:31:21;27.67;;;14.90;;
37241;SDS011;23135;51.078;12.108;2023-06-22T05:33:47;23.23;;;14.50;;
37241;SDS011;23135;51.078;12.108;2023-06-22T05:36:14;21.10;;;15.18;;
37241;SDS011;23135;51.078;12.108;2023-06-22T05:38:39;21.80;;;14.98;;
37241;SDS011;23135;51.078;12.108;2023-06-22T05:41:05;28.45;;;15.23;;
37241;SDS011;23135;51.078;12.108;2023-06-22T05:43:31;23.73;;;14.27;;
37241;SDS011;23135;51.078;12.108;2023-06-22T05:45:57;19.73;;;14.80;;
37241;SDS011;23135;51.078;12.108;2023-06-22T05:48:24;15.95;;;14.05;;
37241;SDS011;23135;51.078;12.108;2023-06-22T05:50:50;22.90;;;13.80;;
37241;SDS011;23135;51.078;12.108;2023-06-22T05:53:15;23.50;;;14.95;;
37241;SDS011;23135;51.078;12.108;2023-06-22T05:55:41;17.48;;;12.88;;
37241;SDS011;23135;51.078;12.108;2023-06-22T05:58:07;18.05;;;12.30;;
37241;SDS011;23135;51.078;12.108;2023-06-22T06:00:33;18.23;;;11.98;;
37241;SDS011;23135;51.078;12.108;2023-06-22T06:02:59;17.95;;;12.15;;
37241;SDS011;23135;51.078;12.108;2023-06-22T06:05:29;21.17;;;12.55;;
37241;SDS011;23135;51.078;12.108;2023-06-22T06:07:55;20.75;;;12.05;;
37241;SDS011;23135;51.078;12.108;2023-06-22T06:10:20;18.35;;;12.07;;
37241;SDS011;23135;51.078;12.108;2023-06-22T06:12:46;21.65;;;11.63;;
37241;SDS011;23135;51.078;12.108;2023-06-22T06:15:12;18.38;;;12.10;;
37241;SDS011;23135;51.078;12.108;2023-06-22T06:17:45;18.02;;;11.25;;
37241;SDS011;23135;51.078;12.108;2023-06-22T06:20:14;15.50;;;12.38;;
37241;SDS011;23135;51.078;12.108;2023-06-22T06:22:40;16.98;;;11.75;;
37241;SDS011;23135;51.078;12.108;2023-06-22T06:25:07;15.52;;;11.80;;
37241;SDS011;23135;51.078;12.108;2023-06-22T06:27:33;21.67;;;11.73;;
37241;SDS011;23135;51.078;12.108;2023-06-22T06:29:59;13.40;;;10.85;;
37241;SDS011;23135;51.078;12.108;2023-06-22T06:32:24;26.92;;;11.55;;
37241;SDS011;23135;51.078;12.108;2023-06-22T06:34:50;18.90;;;11.52;;
37241;SDS011;23135;51.078;12.108;2023-06-22T06:37:16;15.20;;;10.73;;
37241;SDS011;23135;51.078;12.108;2023-06-22T06:39:43;32.45;;;11.70;;
37241;SDS011;23135;51.078;12.108;2023-06-22T06:42:09;14.13;;;11.30;;
37241;SDS011;23135;51.078;12.108;2023-06-22T06:44:36;17.73;;;12.15;;
37241;SDS011;23135;51.078;12.108;2023-06-22T06:47:02;15.38;;;10.13;;
37241;SDS011;23135;51.078;12.108;2023-06-22T06:49:29;16.45;;;11.63;;
37241;SDS011;23135;51.078;12.108;2023-06-22T06:51:54;16.80;;;11.10;;
37241;SDS011;23135;51.078;12.108;2023-06-22T06:54:21;21.58;;;12.63;;
37241;SDS011;23135;51.078;12.108;2023-06-22T06:56:46;16.70;;;11.35;;
37241;SDS011;23135;51.078;12.108;2023-06-22T06:59:13;14.60;;;11.35;;
37241;SDS011;23135;51.078;12.108;2023-06-22T07:01:40;14.73;;;11.05;;
37241;SDS011;23135;51.078;12.108;2023-06-22T07:04:06;15.68;;;12.30;;
37241;SDS011;23135;51.078;12.108;2023-06-22T07:06:31;16.00;;;11.45;;
37241;SDS011;23135;51.078;12.108;2023-06-22T07:08:58;14.98;;;12.32;;
37241;SDS011;23135;51.078;12.108;2023-06-22T07:11:24;12.63;;;10.98;;
37241;SDS011;23135;51.078;12.108;2023-06-22T07:13:50;24.35;;;12.20;;
37241;SDS011;23135;51.078;12.108;2023-06-22T07:16:15;18.00;;;11.50;;
37241;SDS011;23135;51.078;12.108;2023-06-22T07:18:41;16.30;;;11.43;;
37241;SDS011;23135;51.078;12.108;2023-06-22T07:21:07;13.95;;;9.98;;
37241;SDS011;23135;51.078;12.108;2023-06-22T07:23:32;14.50;;;9.90;;
37241;SDS011;23135;51.078;12.108;2023-06-22T07:25:58;12.68;;;8.75;;
37241;SDS011;23135;51.078;12.108;2023-06-22T07:28:26;11.68;;;8.90;;
37241;SDS011;23135;51.078;12.108;2023-06-22T07:30:52;16.70;;;8.57;;
37241;SDS011;23135;51.078;12.108;2023-06-22T07:33:18;15.07;;;7.57;;
37241;SDS011;23135;51.078;12.108;2023-06-22T07:35:44;12.00;;;8.55;;
37241;SDS011;23135;51.078;12.108;2023-06-22T07:38:10;12.38;;;8.57;;
37241;SDS011;23135;51.078;12.108;2023-06-22T07:40:35;17.20;;;8.65;;
37241;SDS011;23135;51.078;12.108;2023-06-22T07:43:01;9.60;;;8.02;;
37241;SDS011;23135;51.078;12.108;2023-06-22T07:45:28;14.48;;;7.75;;
37241;SDS011;23135;51.078;12.108;2023-06-22T07:47:54;8.70;;;7.65;;
37241;SDS011;23135;51.078;12.108;2023-06-22T07:50:20;9.90;;;7.03;;
37241;SDS011;23135;51.078;12.108;2023-06-22T07:52:45;11.88;;;6.93;;
37241;SDS011;23135;51.078;12.108;2023-06-22T07:55:12;14.23;;;6.90;;
37241;SDS011;23135;51.078;12.108;2023-06-22T07:57:38;8.15;;;6.95;;
37241;SDS011;23135;51.078;12.108;2023-06-22T08:00:04;9.68;;;6.10;;
37241;SDS011;23135;51.078;12.108;2023-06-22T08:02:42;9.80;;;6.63;;
37241;SDS011;23135;51.078;12.108;2023-06-22T08:05:09;11.02;;;6.63;;
37241;SDS011;23135;51.078;12.108;2023-06-22T08:07:35;9.45;;;5.97;;
37241;SDS011;23135;51.078;12.108;2023-06-22T08:10:02;6.85;;;5.97;;
37241;SDS011;23135;51.078;12.108;2023-06-22T08:12:29;8.38;;;6.18;;
37241;SDS011;23135;51.078;12.108;2023-06-22T08:14:55;8.38;;;6.05;;
37241;SDS011;23135;51.078;12.108;2023-06-22T08:17:22;12.55;;;6.72;;
37241;SDS011;23135;51.078;12.108;2023-06-22T08:19:48;8.30;;;6.68;;
37241;SDS011;23135;51.078;12.108;2023-06-22T08:22:13;8.23;;;6.20;;
37241;SDS011;23135;51.078;12.108;2023-06-22T08:24:39;10.88;;;6.65;;
37241;SDS011;23135;51.078;12.108;2023-06-22T08:27:06;8.75;;;6.22;;
37241;SDS011;23135;51.078;12.108;2023-06-22T08:29:33;7.43;;;6.50;;
37241;SDS011;23135;51.078;12.108;2023-06-22T08:31:59;10.80;;;6.10;;
37241;SDS011;23135;51.078;12.108;2023-06-22T08:34:24;11.68;;;6.18;;
37241;SDS011;23135;51.078;12.108;2023-06-22T08:36:52;14.02;;;6.63;;
37241;SDS011;23135;51.078;12.108;2023-06-22T08:39:18;6.38;;;5.78;;
37241;SDS011;23135;51.078;12.108;2023-06-22T08:41:45;8.55;;;6.93;;
37241;SDS011;23135;51.078;12.108;2023-06-22T08:44:11;9.52;;;5.80;;
37241;SDS011;23135;51.078;12.108;2023-06-22T08:46:37;14.68;;;6.55;;
37241;SDS011;23135;51.078;12.108;2023-06-22T08:49:04;14.00;;;7.97;;
37241;SDS011;23135;51.078;12.108;2023-06-22T08:51:29;13.73;;;6.38;;
37241;SDS011;23135;51.078;12.108;2023-06-22T08:53:55;11.13;;;7.32;;
37241;SDS011;23135;51.078;12.108;2023-06-22T08:56:20;18.60;;;6.47;;
37241;SDS011;23135;51.078;12.108;2023-06-22T08:58:46;8.38;;;6.32;;
37241;SDS011;23135;51.078;12.108;2023-06-22T09:01:11;13.60;;;6.75;;
37241;SDS011;23135;51.078;12.108;2023-06-22T09:03:37;7.07;;;5.82;;
37241;SDS011;23135;51.078;12.108;2023-06-22T09:06:03;11.55;;;5.10;;
37241;SDS011;23135;51.078;12.108;2023-06-22T09:08:28;7.97;;;5.88;;
37241;SDS011;23135;51.078;12.108;2023-06-22T09:10:54;8.57;;;6.10;;
37241;SDS011;23135;51.078;12.108;2023-06-22T09:13:20;11.88;;;5.32;;
37241;SDS011;23135;51.078;12.108;2023-06-22T09:15:45;14.15;;;5.22;;
37241;SDS011;23135;51.078;12.108;2023-06-22T09:18:11;10.35;;;5.75;;
37241;SDS011;23135;51.078;12.108;2023-06-22T09:20:36;6.22;;;5.57;;
37241;SDS011;23135;51.078;12.108;2023-06-22T09:23:02;9.23;;;5.18;;
37241;SDS011;23135;51.078;12.108;2023-06-22T09:25:28;8.82;;;5.60;;
37241;SDS011;23135;51.078;12.108;2023-06-22T09:27:53;8.27;;;4.72;;
37241;SDS011;23135;51.078;12.108;2023-06-22T09:30:19;6.95;;;5.25;;
37241;SDS011;23135;51.078;12.108;2023-06-22T09:32:46;12.40;;;5.10;;
37241;SDS011;23135;51.078;12.108;2023-06-22T09:35:12;8.70;;;5.13;;
37241;SDS011;23135;51.078;12.108;2023-06-22T09:37:38;5.40;;;4.30;;
37241;SDS011;23135;51.078;12.108;2023-06-22T09:40:05;8.60;;;5.38;;
37241;SDS011;23135;51.078;12.108;2023-06-22T09:42:34;9.27;;;4.77;;
37241;SDS011;23135;51.078;12.108;2023-06-22T09:45:00;6.15;;;5.60;;
37241;SDS011;23135;51.078;12.108;2023-06-22T09:47:26;4.68;;;4.28;;
37241;SDS011;23135;51.078;12.108;2023-06-22T09:49:52;5.13;;;4.47;;
37241;SDS011;23135;51.078;12.108;2023-06-22T09:52:20;6.53;;;4.65;;
37241;SDS011;23135;51.078;12.108;2023-06-22T09:54:46;8.35;;;4.68;;
37241;SDS011;23135;51.078;12.108;2023-06-22T09:57:11;7.75;;;4.45;;
37241;SDS011;23135;51.078;12.108;2023-06-22T09:59:37;6.75;;;4.55;;
37241;SDS011;23135;51.078;12.108;2023-06-22T10:02:05;7.30;;;5.07;;
37241;SDS011;23135;51.078;12.108;2023-06-22T10:04:31;7.72;;;4.40;;
37241;SDS011;23135;51.078;12.108;2023-06-22T10:06:57;7.18;;;4.32;;
37241;SDS011;23135;51.078;12.108;2023-06-22T10:09:23;5.15;;;4.78;;
37241;SDS011;23135;51.078;12.108;2023-06-22T10:11:49;5.38;;;4.15;;
37241;SDS011;23135;51.078;12.108;2023-06-22T10:14:14;5.10;;;4.15;;
37241;SDS011;23135;51.078;12.108;2023-06-22T10:16:40;6.47;;;4.95;;
37241;SDS011;23135;51.078;12.108;2023-06-22T10:19:06;4.65;;;4.13;;
37241;SDS011;23135;51.078;12.108;2023-06-22T10:21:31;4.40;;;4.10;;
37241;SDS011;23135;51.078;12.108;2023-06-22T10:23:57;4.40;;;4.00;;
37241;SDS011;23135;51.078;12.108;2023-06-22T10:26:24;5.47;;;4.60;;
37241;SDS011;23135;51.078;12.108;2023-06-22T10:28:50;5.03;;;4.63;;
37241;SDS011;23135;51.078;12.108;2023-06-22T10:31:15;4.78;;;3.78;;
37241;SDS011;23135;51.078;12.108;2023-06-22T10:33:41;8.07;;;5.15;;
37241;SDS011;23135;51.078;12.108;2023-06-22T10:36:08;4.55;;;4.20;;
37241;SDS011;23135;51.078;12.108;2023-06-22T10:38:35;4.60;;;4.20;;
37241;SDS011;23135;51.078;12.108;2023-06-22T10:41:01;5.70;;;4.25;;
37241;SDS011;23135;51.078;12.108;2023-06-22T10:43:27;18.58;;;4.55;;
37241;SDS011;23135;51.078;12.108;2023-06-22T10:45:53;4.82;;;4.53;;
37241;SDS011;23135;51.078;12.108;2023-06-22T10:48:18;5.57;;;5.15;;
37241;SDS011;23135;51.078;12.108;2023-06-22T10:50:44;5.22;;;4.93;;
37241;SDS011;23135;51.078;12.108;2023-06-22T10:53:09;7.40;;;4.53;;
37241;SDS011;23135;51.078;12.108;2023-06-22T10:55:35;5.25;;;4.78;;
37241;SDS011;23135;51.078;12.108;2023-06-22T10:58:00;4.63;;;4.32;;
37241;SDS011;23135;51.078;12.108;2023-06-22T11:00:26;4.30;;;4.00;;
37241;SDS011;23135;51.078;12.108;2023-06-22T11:02:51;5.43;;;4.65;;
37241;SDS011;23135;51.078;12.108;2023-06-22T11:05:17;5.82;;;4.38;;
37241;SDS011;23135;51.078;12.108;2023-06-22T11:07:43;8.38;;;4.60;;
37241;SDS011;23135;51.078;12.108;2023-06-22T11:10:09;4.90;;;4.20;;
37241;SDS011;23135;51.078;12.108;2023-06-22T11:12:35;4.95;;;4.55;;
37241;SDS011;23135;51.078;12.108;2023-06-22T11:15:01;5.38;;;4.50;;
37241;SDS011;23135;51.078;12.108;2023-06-22T11:17:27;5.93;;;4.43;;
37241;SDS011;23135;51.078;12.108;2023-06-22T11:19:52;5.63;;;5.13;;
37241;SDS011;23135;51.078;12.108;2023-06-22T11:22:18;4.68;;;4.13;;
37241;SDS011;23135;51.078;12.108;2023-06-22T11:24:43;5.57;;;5.03;;
37241;SDS011;23135;51.078;12.108;2023-06-22T11:27:09;4.97;;;4.35;;
37241;SDS011;23135;51.078;12.108;2023-06-22T11:29:34;4.47;;;4.18;;
37241;SDS011;23135;51.078;12.108;2023-06-22T11:32:00;6.55;;;3.65;;
37241;SDS011;23135;51.078;12.108;2023-06-22T11:34:26;5.25;;;4.85;;
37241;SDS011;23135;51.078;12.108;2023-06-22T11:36:53;7.07;;;4.20;;
37241;SDS011;23135;51.078;12.108;2023-06-22T11:39:18;7.03;;;5.03;;
37241;SDS011;23135;51.078;12.108;2023-06-22T11:41:44;7.68;;;4.57;;
37241;SDS011;23135;51.078;12.108;2023-06-22T11:44:10;4.97;;;4.47;;
37241;SDS011;23135;51.078;12.108;2023-06-22T11:46:36;5.10;;;4.43;;
37241;SDS011;23135;51.078;12.108;2023-06-22T11:49:02;5.57;;;4.20;;
37241;SDS011;23135;51.078;12.108;2023-06-22T11:51:27;7.07;;;4.45;;
37241;SDS011;23135;51.078;12.108;2023-06-22T11:53:53;6.03;;;4.95;;
37241;SDS011;23135;51.078;12.108;2023-06-22T11:56:19;7.88;;;3.90;;
37241;SDS011;23135;51.078;12.108;2023-06-22T11:58:44;4.57;;;4.20;;
37241;SDS011;23135;51.078;12.108;2023-06-22T12:01:10;4.68;;;4.32;;
37241;SDS011;23135;51.078;12.108;2023-06-22T12:03:39;5.15;;;4.43;;
37241;SDS011;23135;51.078;12.108;2023-06-22T12:06:05;4.35;;;3.85;;
37241;SDS011;23135;51.078;12.108;2023-06-22T12:08:31;3.78;;;3.58;;
37241;SDS011;23135;51.078;12.108;2023-06-22T12:10:56;4.88;;;4.50;;
37241;SDS011;23135;51.078;12.108;2023-06-22T12:13:22;7.28;;;3.83;;
37241;SDS011;23135;51.078;12.108;2023-06-22T12:15:47;5.47;;;4.43;;
37241;SDS011;23135;51.078;12.108;2023-06-22T12:18:13;5.57;;;4.68;;
37241;SDS011;23135;51.078;12.108;2023-06-22T12:20:40;5.10;;;4.63;;
37241;SDS011;23135;51.078;12.108;2023-06-22T12:23:05;5.22;;;4.82;;
37241;SDS011;23135;51.078;12.108;2023-06-22T12:25:31;5.15;;;4.75;;
37241;SDS011;23135;51.078;12.108;2023-06-22T12:27:56;10.07;;;4.50;;
37241;SDS011;23135;51.078;12.108;2023-06-22T12:30:22;4.28;;;3.97;;
37241;SDS011;23135;51.078;12.108;2023-06-22T12:32:47;8.98;;;4.93;;
37241;SDS011;23135;51.078;12.108;2023-06-22T12:35:14;5.93;;;4.72;;
37241;SDS011;23135;51.078;12.108;2023-06-22T12:37:40;5.20;;;4.80;;
37241;SDS011;23135;51.078;12.108;2023-06-22T12:40:07;5.53;;;4.80;;
37241;SDS011;23135;51.078;12.108;2023-06-22T12:42:33;4.85;;;4.55;;
37241;SDS011;23135;51.078;12.108;2023-06-22T12:44:59;4.32;;;3.97;;
37241;SDS011;23135;51.078;12.108;2023-06-22T12:47:24;12.50;;;5.10;;
37241;SDS011;23135;51.078;12.108;2023-06-22T12:49:50;5.75;;;4.47;;
37241;SDS011;23135;51.078;12.108;2023-06-22T12:52:15;4.70;;;4.30;;
37241;SDS011;23135;51.078;12.108;2023-06-22T12:54:41;4.38;;;4.07;;
37241;SDS011;23135;51.078;12.108;2023-06-22T12:57:07;5.20;;;4.72;;
37241;SDS011;23135;51.078;12.108;2023-06-22T12:59:32;5.90;;;4.50;;
37241;SDS011;23135;51.078;12.108;2023-06-22T13:01:58;4.93;;;4.43;;
37241;SDS011;23135;51.078;12.108;2023-06-22T13:04:23;7.32;;;4.20;;
37241;SDS011;23135;51.078;12.108;2023-06-22T13:06:49;4.70;;;4.40;;
37241;SDS011;23135;51.078;12.108;2023-06-22T13:09:15;4.90;;;3.67;;
37241;SDS011;23135;51.078;12.108;2023-06-22T13:11:42;5.22;;;3.83;;
37241;SDS011;23135;51.078;12.108;2023-06-22T13:14:08;4.88;;;3.90;;
37241;SDS011;23135;51.078;12.108;2023-06-22T13:16:34;5.68;;;4.22;;
37241;SDS011;23135;51.078;12.108;2023-06-22T13:18:59;7.13;;;4.47;;
37241;SDS011;23135;51.078;12.108;2023-06-22T13:21:25;4.90;;;4.40;;
37241;SDS011;23135;51.078;12.108;2023-06-22T13:23:51;5.50;;;4.55;;
37241;SDS011;23135;51.078;12.108;2023-06-22T13:26:16;5.78;;;4.22;;
37241;SDS011;23135;51.078;12.108;2023-06-22T13:28:42;5.25;;;4.15;;
37241;SDS011;23135;51.078;12.108;2023-06-22T13:31:08;5.53;;;4.43;;
37241;SDS011;23135;51.078;12.108;2023-06-22T13:33:34;5.63;;;5.13;;
37241;SDS011;23135;51.078;12.108;2023-06-22T13:35:59;5.80;;;3.65;;
37241;SDS011;23135;51.078;12.108;2023-06-22T13:38:25;6.03;;;4.68;;
37241;SDS011;23135;51.078;12.108;2023-06-22T13:40:51;5.55;;;5.05;;
37241;SDS011;23135;51.078;12.108;2023-06-22T13:43:16;5.32;;;4.70;;
37241;SDS011;23135;51.078;12.108;2023-06-22T13:45:42;5.18;;;4.75;;
37241;SDS011;23135;51.078;12.108;2023-06-22T13:48:08;5.15;;;4.65;;
37241;SDS011;23135;51.078;12.108;2023-06-22T13:50:34;5.80;;;5.15;;
37241;SDS011;23135;51.078;12.108;2023-06-22T13:53:00;6.07;;;4.63;;
37241;SDS011;23135;51.078;12.108;2023-06-22T13:55:25;6.57;;;4.75;;
37241;SDS011;23135;51.078;12.108;2023-06-22T13:57:51;6.18;;;5.65;;
37241;SDS011;23135;51.078;12.108;2023-06-22T14:00:17;4.82;;;4.43;;
37241;SDS011;23135;51.078;12.108;2023-06-22T14:02:43;6.30;;;5.28;;
37241;SDS011;23135;51.078;12.108;2023-06-22T14:05:09;7.07;;;5.18;;
37241;SDS011;23135;51.078;12.108;2023-06-22T14:07:35;5.47;;;4.97;;
37241;SDS011;23135;51.078;12.108;2023-06-22T14:10:02;5.13;;;4.57;;
37241;SDS011;23135;51.078;12.108;2023-06-22T14:12:28;6.80;;;4.95;;
37241;SDS011;23135;51.078;12.108;2023-06-22T14:14:54;5.40;;;4.90;;
37241;SDS011;23135;51.078;12.108;2023-06-22T14:17:19;7.20;;;6.50;;
37241;SDS011;23135;51.078;12.108;2023-06-22T14:19:50;5.10;;;4.72;;
37241;SDS011;23135;51.078;12.108;2023-06-22T14:22:20;5.97;;;5.15;;
37241;SDS011;23135;51.078;12.108;2023-06-22T14:24:46;5.78;;;5.20;;
37241;SDS011;23135;51.078;12.108;2023-06-22T14:27:13;5.95;;;5.45;;